createdAt,value
2023-05-20T00:00:49.185Z,12.53
2023-05-20T00:03:16.715Z,12.49
2023-05-20T00:05:43.849Z,12.44
2023-05-20T00:08:11.194Z,12.44
2023-05-20T00:10:38.275Z,12.41
2023-05-20T00:13:06.584Z,12.36
2023-05-20T00:15:34.601Z,12.37
2023-05-20T00:18:02.241Z,12.32
2023-05-20T00:20:28.739Z,12.26
2023-05-20T00:22:55.485Z,12.28
2023-05-20T00:25:22.227Z,12.21
2023-05-20T00:27:48.707Z,12.23
2023-05-20T00:30:15.383Z,12.20
2023-05-20T00:32:41.956Z,12.14
2023-05-20T00:35:09.326Z,12.13
2023-05-20T00:37:35.830Z,12.13
2023-05-20T00:40:02.714Z,12.09
2023-05-20T00:42:29.354Z,12.10
2023-05-20T00:44:56.490Z,12.04
2023-05-20T00:47:29.815Z,12.00
2023-05-20T00:49:57.020Z,12.00
2023-05-20T00:52:24.212Z,11.95
2023-05-20T00:54:51.675Z,11.91
2023-05-20T00:57:19.895Z,11.87
2023-05-20T00:59:46.569Z,11.89
2023-05-20T01:02:13.421Z,11.84
2023-05-20T01:04:40.083Z,11.76
2023-05-20T01:07:07.291Z,11.79
2023-05-20T01:09:33.998Z,11.76
2023-05-20T01:12:06.899Z,11.74
2023-05-20T01:14:38.114Z,11.76
2023-05-20T01:17:10.830Z,11.75
2023-05-20T01:19:45.437Z,11.75
2023-05-20T01:22:13.450Z,11.71
2023-05-20T01:24:44.772Z,11.69
2023-05-20T01:27:13.519Z,11.71
2023-05-20T01:29:42.141Z,11.69
2023-05-20T01:32:15.529Z,11.69
2023-05-20T01:34:43.023Z,11.68
2023-05-20T01:37:10.976Z,11.68
2023-05-20T01:39:41.639Z,11.68
2023-05-20T01:42:10.095Z,11.70
2023-05-20T01:44:37.368Z,11.60
2023-05-20T01:47:04.313Z,11.66
2023-05-20T01:49:30.867Z,11.61
2023-05-20T01:51:57.838Z,11.62
2023-05-20T01:54:24.393Z,11.61
2023-05-20T01:56:50.982Z,11.60
2023-05-20T01:59:17.461Z,11.59
2023-05-20T02:01:44.114Z,11.59
2023-05-20T02:04:10.651Z,11.56
2023-05-20T02:06:37.158Z,11.56
2023-05-20T02:09:04.035Z,11.54
2023-05-20T02:11:30.491Z,11.53
2023-05-20T02:13:57.073Z,11.49
2023-05-20T02:16:23.648Z,11.49
2023-05-20T02:18:52.997Z,11.48
2023-05-20T02:21:19.722Z,11.45
2023-05-20T02:23:46.613Z,11.46
2023-05-20T02:26:13.088Z,11.46
2023-05-20T02:28:43.511Z,11.43
2023-05-20T02:31:09.983Z,11.45
2023-05-20T02:33:36.466Z,11.39
2023-05-20T02:36:03.073Z,11.40
2023-05-20T02:38:31.843Z,11.38
2023-05-20T02:40:59.879Z,11.37
2023-05-20T02:43:26.462Z,11.34
2023-05-20T02:45:52.956Z,11.30
2023-05-20T02:48:19.387Z,11.27
2023-05-20T02:50:47.543Z,11.29
2023-05-20T02:53:14.128Z,11.28
2023-05-20T02:55:40.948Z,11.24
2023-05-20T02:58:07.581Z,11.22
2023-05-20T03:00:40.556Z,11.22
2023-05-20T03:03:08.147Z,11.18
2023-05-20T03:05:37.842Z,11.20
2023-05-20T03:08:10.207Z,11.16
2023-05-20T03:10:37.839Z,11.15
2023-05-20T03:13:09.359Z,11.14
2023-05-20T03:15:36.760Z,11.13
2023-05-20T03:18:03.869Z,11.12
2023-05-20T03:20:30.665Z,11.10
2023-05-20T03:22:57.183Z,11.07
2023-05-20T03:25:24.795Z,11.08
2023-05-20T03:27:51.538Z,11.10
2023-05-20T03:30:18.378Z,11.08
2023-05-20T03:32:45.070Z,10.94
2023-05-20T03:35:11.513Z,11.07
2023-05-20T03:37:38.172Z,11.08
2023-05-20T03:40:08.126Z,11.09
2023-05-20T03:42:34.761Z,11.09
2023-05-20T03:45:01.555Z,11.09
2023-05-20T03:47:28.531Z,11.05
2023-05-20T03:49:55.149Z,11.12
2023-05-20T03:52:21.696Z,11.09
2023-05-20T03:54:48.148Z,11.11
2023-05-20T03:57:15.009Z,11.13
2023-05-20T03:59:41.801Z,11.15
2023-05-20T04:02:09.049Z,11.15
2023-05-20T04:04:36.212Z,11.15
2023-05-20T04:07:05.546Z,11.20
2023-05-20T04:09:32.027Z,11.25
2023-05-20T04:11:58.686Z,11.29
2023-05-20T04:14:25.158Z,11.33
2023-05-20T04:16:52.462Z,11.38
2023-05-20T04:19:24.245Z,11.47
2023-05-20T04:21:50.857Z,11.51
2023-05-20T04:24:17.552Z,11.54
2023-05-20T04:26:44.465Z,11.63
2023-05-20T04:29:11.898Z,11.64
2023-05-20T04:31:38.641Z,11.72
2023-05-20T04:34:05.377Z,11.74
2023-05-20T04:36:32.379Z,11.76
2023-05-20T04:38:58.871Z,11.81
2023-05-20T04:41:25.442Z,11.84
2023-05-20T04:43:51.975Z,11.88
2023-05-20T04:46:18.660Z,11.88
2023-05-20T04:48:45.213Z,11.92
2023-05-20T04:51:11.686Z,11.96
2023-05-20T04:53:38.732Z,11.98
2023-05-20T04:56:05.816Z,11.99
2023-05-20T04:58:33.428Z,12.03
2023-05-20T05:01:01.494Z,12.03
2023-05-20T05:03:28.188Z,12.09
2023-05-20T05:05:58.714Z,12.11
2023-05-20T05:08:26.802Z,12.17
2023-05-20T05:10:53.338Z,12.22
2023-05-20T05:13:19.795Z,12.28
2023-05-20T05:15:46.395Z,12.30
2023-05-20T05:18:13.012Z,12.34
2023-05-20T05:20:39.598Z,12.44
2023-05-20T05:23:06.144Z,12.53
2023-05-20T05:25:33.259Z,12.60
2023-05-20T05:28:00.077Z,12.66
2023-05-20T05:30:27.040Z,12.72
2023-05-20T05:32:53.666Z,12.78
2023-05-20T05:35:20.274Z,12.86
2023-05-20T05:37:46.812Z,12.95
2023-05-20T05:40:13.497Z,12.99
2023-05-20T05:42:40.473Z,13.08
2023-05-20T05:45:07.587Z,13.14
2023-05-20T05:47:34.165Z,13.24
2023-05-20T05:50:00.883Z,13.31
2023-05-20T05:52:27.604Z,13.40
2023-05-20T05:54:55.559Z,13.47
2023-05-20T05:57:22.605Z,13.56
2023-05-20T05:59:49.201Z,13.64
2023-05-20T06:02:16.976Z,13.72
2023-05-20T06:04:43.585Z,13.80
2023-05-20T06:07:10.157Z,13.93
2023-05-20T06:09:36.933Z,13.89
2023-05-20T06:12:03.632Z,14.05
2023-05-20T06:14:33.022Z,14.18
2023-05-20T06:16:59.661Z,14.35
2023-05-20T06:19:26.272Z,14.41
2023-05-20T06:21:52.866Z,14.52
2023-05-20T06:24:19.306Z,14.61
2023-05-20T06:26:46.129Z,14.74
2023-05-20T06:29:12.600Z,14.80
2023-05-20T06:31:39.378Z,14.92
2023-05-20T06:34:06.284Z,14.92
2023-05-20T06:36:33.809Z,15.14
2023-05-20T06:39:00.404Z,15.28
2023-05-20T06:41:27.255Z,15.41
2023-05-20T06:43:53.789Z,15.48
2023-05-20T06:46:20.493Z,15.62
2023-05-20T06:48:47.087Z,15.72
2023-05-20T06:51:14.060Z,15.82
2023-05-20T06:53:40.560Z,15.77
2023-05-20T06:56:07.213Z,15.96
2023-05-20T06:58:33.760Z,15.95
2023-05-20T07:01:00.619Z,16.12
2023-05-20T07:03:27.197Z,16.30
2023-05-20T07:05:53.782Z,16.46
2023-05-20T07:08:20.489Z,16.52
2023-05-20T07:10:47.189Z,16.45
2023-05-20T07:13:13.946Z,16.60
2023-05-20T07:15:40.612Z,16.74
2023-05-20T07:18:07.279Z,16.74
2023-05-20T07:20:33.865Z,16.83
2023-05-20T07:23:02.637Z,16.98
2023-05-20T07:25:29.121Z,17.15
2023-05-20T07:27:55.826Z,17.28
2023-05-20T07:30:22.420Z,17.38
2023-05-20T07:32:48.973Z,17.42
2023-05-20T07:35:15.541Z,17.50
2023-05-20T07:37:41.963Z,17.53
2023-05-20T07:40:09.088Z,17.61
2023-05-20T07:42:35.700Z,17.63
2023-05-20T07:45:02.553Z,17.73
2023-05-20T07:47:29.077Z,17.86
2023-05-20T07:49:55.650Z,17.93
2023-05-20T07:52:22.446Z,18.08
2023-05-20T07:54:48.894Z,18.08
2023-05-20T07:57:15.428Z,18.18
2023-05-20T07:59:42.003Z,18.28
2023-05-20T08:02:08.937Z,18.29
2023-05-20T08:04:36.207Z,18.36
2023-05-20T08:07:02.949Z,18.43
2023-05-20T08:09:31.739Z,18.66
2023-05-20T08:11:58.266Z,18.68
2023-05-20T08:14:24.810Z,18.83
2023-05-20T08:16:53.804Z,18.91
2023-05-20T08:19:22.002Z,18.96
2023-05-20T08:21:48.719Z,18.96
2023-05-20T08:24:15.427Z,19.08
2023-05-20T08:26:42.047Z,19.08
2023-05-20T08:29:08.501Z,19.24
2023-05-20T08:31:35.134Z,19.38
2023-05-20T08:34:01.709Z,19.42
2023-05-20T08:36:28.216Z,19.49
2023-05-20T08:38:55.901Z,19.64
2023-05-20T08:41:22.652Z,19.67
2023-05-20T08:43:50.474Z,19.73
2023-05-20T08:46:18.732Z,19.82
2023-05-20T08:48:45.874Z,19.76
2023-05-20T08:51:16.130Z,19.68
2023-05-20T08:53:42.823Z,19.76
2023-05-20T08:56:10.244Z,19.93
2023-05-20T08:58:37.576Z,19.95
2023-05-20T09:01:04.941Z,20.11
2023-05-20T09:03:32.157Z,20.20
2023-05-20T09:06:06.908Z,20.25
2023-05-20T09:08:34.465Z,20.30
2023-05-20T09:11:01.619Z,20.43
2023-05-20T09:13:31.635Z,20.43
2023-05-20T09:16:01.196Z,20.41
2023-05-20T09:18:27.973Z,20.27
2023-05-20T09:20:54.633Z,20.37
2023-05-20T09:23:25.945Z,20.46
2023-05-20T09:25:52.942Z,20.50
2023-05-20T09:28:20.765Z,20.58
2023-05-20T09:30:50.126Z,20.68
2023-05-20T09:33:16.948Z,20.79
2023-05-20T09:35:43.923Z,20.81
2023-05-20T09:38:11.730Z,20.78
2023-05-20T09:40:40.247Z,20.75
2023-05-20T09:43:07.918Z,20.90
2023-05-20T09:45:35.046Z,21.01
2023-05-20T09:48:02.145Z,20.96
2023-05-20T09:50:34.009Z,20.86
2023-05-20T09:53:03.637Z,20.80
2023-05-20T09:55:30.843Z,20.69
2023-05-20T09:57:59.187Z,20.87
2023-05-20T10:00:25.987Z,20.85
2023-05-20T10:02:53.452Z,20.73
2023-05-20T10:05:27.280Z,20.80
2023-05-20T10:08:11.937Z,20.78
2023-05-20T10:10:47.721Z,20.76
2023-05-20T10:13:19.144Z,20.70
2023-05-20T10:15:52.283Z,20.82
2023-05-20T10:18:46.316Z,20.87
2023-05-20T10:21:25.029Z,20.71
2023-05-20T10:23:52.358Z,20.68
2023-05-20T10:26:19.482Z,20.61
2023-05-20T10:28:46.541Z,20.61
2023-05-20T10:31:22.219Z,20.68
2023-05-20T10:33:51.955Z,20.83
2023-05-20T10:36:29.179Z,20.80
2023-05-20T10:38:57.386Z,20.99
2023-05-20T10:41:28.629Z,21.21
2023-05-20T10:44:05.903Z,21.30
2023-05-20T10:46:44.185Z,21.41
2023-05-20T10:49:23.279Z,21.42
2023-05-20T10:51:52.112Z,21.30
2023-05-20T10:54:18.937Z,21.12
2023-05-20T10:56:55.208Z,21.13
2023-05-20T10:59:22.133Z,21.12
2023-05-20T11:01:49.336Z,21.13
2023-05-20T11:04:17.151Z,21.08
2023-05-20T11:06:51.527Z,21.22
2023-05-20T11:09:18.056Z,21.04
2023-05-20T11:11:44.718Z,21.16
2023-05-20T11:14:14.822Z,21.14
2023-05-20T11:16:42.422Z,21.20
2023-05-20T11:19:14.449Z,21.30
2023-05-20T11:21:46.025Z,21.21
2023-05-20T11:24:13.192Z,21.13
2023-05-20T11:26:41.039Z,21.14
2023-05-20T11:29:07.643Z,21.21
2023-05-20T11:31:34.364Z,21.41
2023-05-20T11:34:01.583Z,21.71
2023-05-20T11:36:28.880Z,21.73
2023-05-20T11:38:58.653Z,21.69
2023-05-20T11:41:26.637Z,21.77
2023-05-20T11:44:00.223Z,21.86
2023-05-20T11:46:28.402Z,21.90
2023-05-20T11:48:56.295Z,22.20
2023-05-20T11:51:25.615Z,22.33
2023-05-20T11:53:52.045Z,22.32
2023-05-20T11:56:18.645Z,22.47
2023-05-20T11:58:45.824Z,22.44
2023-05-20T12:01:21.611Z,22.51
2023-05-20T12:03:48.889Z,22.62
2023-05-20T12:06:17.041Z,22.53
2023-05-20T12:08:43.461Z,22.51
2023-05-20T12:11:09.896Z,22.40
2023-05-20T12:13:36.560Z,22.23
2023-05-20T12:16:04.267Z,21.97
2023-05-20T12:18:30.855Z,21.96
2023-05-20T12:20:57.596Z,22.07
2023-05-20T12:23:24.350Z,22.10
2023-05-20T12:25:50.891Z,22.11
2023-05-20T12:28:17.758Z,22.03
2023-05-20T12:30:44.409Z,22.14
2023-05-20T12:33:11.151Z,22.06
2023-05-20T12:35:42.516Z,21.92
2023-05-20T12:38:09.646Z,21.78
2023-05-20T12:40:37.541Z,21.76
2023-05-20T12:43:05.594Z,21.63
2023-05-20T12:45:32.043Z,21.61
2023-05-20T12:47:59.085Z,21.59
2023-05-20T12:50:26.005Z,21.61
2023-05-20T12:52:52.838Z,21.62
2023-05-20T12:55:19.630Z,21.58
2023-05-20T12:57:47.291Z,21.61
2023-05-20T13:00:14.585Z,21.60
2023-05-20T13:02:42.385Z,21.60
2023-05-20T13:05:10.630Z,21.55
2023-05-20T13:07:37.651Z,21.54
2023-05-20T13:10:04.637Z,21.64
2023-05-20T13:12:31.301Z,21.69
2023-05-20T13:14:57.858Z,21.75
2023-05-20T13:17:24.384Z,21.78
2023-05-20T13:19:51.468Z,21.84
2023-05-20T13:22:17.951Z,21.84
2023-05-20T13:24:44.476Z,21.76
2023-05-20T13:27:11.003Z,21.66
2023-05-20T13:29:37.628Z,21.70
2023-05-20T13:37:04.692Z,21.65
2023-05-20T13:39:31.196Z,21.65
2023-05-20T13:41:58.895Z,21.68
2023-05-20T13:44:25.847Z,21.61
2023-05-20T13:46:52.690Z,21.60
2023-05-20T13:49:19.323Z,21.52
2023-05-20T13:51:46.433Z,21.48
2023-05-20T13:54:13.109Z,21.57
2023-05-20T13:56:43.570Z,21.66
2023-05-20T13:59:10.297Z,21.89
2023-05-20T14:01:39.032Z,22.01
2023-05-20T14:04:07.156Z,22.14
2023-05-20T14:06:33.800Z,22.35
2023-05-20T14:09:00.350Z,22.35
2023-05-20T14:11:26.902Z,22.43
2023-05-20T14:13:53.364Z,22.45
2023-05-20T14:16:20.041Z,22.51
2023-05-20T14:18:46.741Z,22.44
2023-05-20T14:21:13.619Z,22.49
2023-05-20T14:23:44.322Z,22.51
2023-05-20T14:26:11.274Z,22.55
2023-05-20T14:28:39.193Z,22.52
2023-05-20T14:31:08.899Z,22.65
2023-05-20T14:33:36.309Z,22.65
2023-05-20T14:36:02.866Z,22.73
2023-05-20T14:38:29.546Z,22.68
2023-05-20T14:40:56.127Z,22.69
2023-05-20T14:43:22.688Z,22.62
2023-05-20T14:45:49.429Z,22.43
2023-05-20T14:48:15.928Z,22.39
2023-05-20T14:50:42.501Z,22.48
2023-05-20T14:53:09.171Z,22.54
2023-05-20T14:55:35.688Z,22.51
2023-05-20T14:58:02.233Z,22.51
2023-05-20T15:00:28.775Z,22.38
2023-05-20T15:02:55.825Z,22.47
2023-05-20T15:05:22.787Z,22.53
2023-05-20T15:07:50.961Z,22.57
2023-05-20T15:10:18.002Z,22.67
2023-05-20T15:12:45.028Z,22.73
2023-05-20T15:15:11.714Z,22.59
2023-05-20T15:17:38.292Z,22.60
2023-05-20T15:20:05.671Z,22.66
2023-05-20T15:22:32.270Z,22.64
2023-05-20T15:24:59.167Z,22.69
2023-05-20T15:27:26.987Z,22.61
2023-05-20T15:29:53.727Z,22.77
2023-05-20T15:32:20.753Z,22.73
2023-05-20T15:34:47.292Z,22.80
2023-05-20T15:37:13.811Z,22.73
2023-05-20T15:39:40.448Z,22.71
2023-05-20T15:42:06.912Z,22.62
2023-05-20T15:44:35.239Z,22.58
2023-05-20T15:47:02.460Z,22.55
2023-05-20T15:49:29.089Z,22.55
2023-05-20T15:52:02.357Z,22.56
2023-05-20T15:54:29.928Z,22.41
2023-05-20T15:56:56.668Z,22.38
2023-05-20T15:59:23.320Z,22.38
2023-05-20T16:01:50.073Z,22.37
2023-05-20T16:04:16.685Z,22.46
2023-05-20T16:06:43.315Z,22.44
2023-05-20T16:09:09.786Z,22.35
2023-05-20T16:11:36.471Z,22.44
2023-05-20T16:14:02.964Z,22.36
2023-05-20T16:16:29.600Z,22.35
2023-05-20T16:18:56.528Z,22.28
2023-05-20T16:21:25.028Z,22.28
2023-05-20T16:23:52.823Z,22.31
2023-05-20T16:26:19.469Z,22.19
2023-05-20T16:28:47.239Z,22.09
2023-05-20T16:31:13.968Z,22.07
2023-05-20T16:33:40.664Z,22.09
2023-05-20T16:36:07.338Z,21.96
2023-05-20T16:38:34.621Z,21.90
2023-05-20T16:41:01.777Z,21.91
2023-05-20T16:43:28.531Z,21.81
2023-05-20T16:45:55.158Z,21.77
2023-05-20T16:48:21.833Z,21.68
2023-05-20T16:50:48.472Z,21.64
2023-05-20T16:53:16.412Z,21.55
2023-05-20T16:55:43.191Z,21.48
2023-05-20T16:58:09.838Z,21.52
2023-05-20T17:00:36.461Z,21.48
2023-05-20T17:03:03.263Z,21.44
2023-05-20T17:05:29.950Z,21.41
2023-05-20T17:07:59.966Z,21.41
2023-05-20T17:10:28.550Z,21.33
2023-05-20T17:12:55.633Z,21.34
2023-05-20T17:15:23.609Z,21.26
2023-05-20T17:17:50.649Z,21.20
2023-05-20T17:20:17.418Z,21.17
2023-05-20T17:22:43.944Z,21.09
2023-05-20T17:25:10.890Z,21.06
2023-05-20T17:27:37.729Z,21.02
2023-05-20T17:30:04.788Z,20.99
2023-05-20T17:32:31.370Z,20.96
2023-05-20T17:34:57.868Z,20.90
2023-05-20T17:37:24.404Z,20.85
2023-05-20T17:39:51.167Z,20.78
2023-05-20T17:42:17.607Z,20.78
2023-05-20T17:44:44.066Z,20.77
2023-05-20T17:47:10.557Z,20.70
2023-05-20T17:49:37.562Z,20.69
2023-05-20T17:52:04.333Z,20.57
2023-05-20T17:54:31.323Z,20.56
2023-05-20T17:56:57.871Z,20.48
2023-05-20T17:59:25.047Z,20.48
2023-05-20T18:01:52.739Z,20.46
2023-05-20T18:04:21.199Z,20.40
2023-05-20T18:06:47.924Z,20.31
2023-05-20T18:09:14.632Z,20.27
2023-05-20T18:11:41.237Z,20.23
2023-05-20T18:14:07.964Z,20.15
2023-05-20T18:16:34.899Z,20.10
2023-05-20T18:19:02.751Z,20.13
2023-05-20T18:21:29.434Z,20.03
2023-05-20T18:23:56.113Z,20.01
2023-05-20T18:26:23.079Z,19.99
2023-05-20T18:28:50.153Z,19.93
2023-05-20T18:31:16.859Z,19.83
2023-05-20T18:33:43.468Z,19.80
2023-05-20T18:36:10.104Z,19.74
2023-05-20T18:38:37.899Z,19.71
2023-05-20T18:41:06.374Z,19.66
2023-05-20T18:43:33.010Z,19.64
2023-05-20T18:45:59.727Z,19.61
2023-05-20T18:48:27.316Z,19.51
2023-05-20T18:50:55.444Z,19.44
2023-05-20T18:53:22.572Z,19.45
2023-05-20T18:55:49.754Z,19.39
2023-05-20T18:58:16.235Z,19.34
2023-05-20T19:00:43.051Z,19.36
2023-05-20T19:03:09.749Z,19.31
2023-05-20T19:05:36.818Z,19.11
2023-05-20T19:08:05.820Z,19.25
2023-05-20T19:10:33.571Z,19.14
2023-05-20T19:13:00.431Z,19.10
2023-05-20T19:15:27.076Z,19.09
2023-05-20T19:17:53.816Z,19.07
2023-05-20T19:20:20.590Z,19.07
2023-05-20T19:22:47.421Z,18.99
2023-05-20T19:25:14.048Z,18.96
2023-05-20T19:27:40.695Z,18.86
2023-05-20T19:30:10.556Z,18.85
2023-05-20T19:32:38.107Z,18.76
2023-05-20T19:35:09.113Z,18.72
2023-05-20T19:37:35.966Z,18.70
2023-05-20T19:40:04.044Z,18.64
2023-05-20T19:42:30.690Z,18.56
2023-05-20T19:44:57.211Z,18.49
2023-05-20T19:47:23.813Z,18.46
2023-05-20T19:49:50.831Z,18.45
2023-05-20T19:52:18.563Z,18.42
2023-05-20T19:54:45.442Z,18.40
2023-05-20T19:57:12.105Z,18.30
2023-05-20T19:59:38.847Z,18.20
2023-05-20T20:02:06.933Z,18.21
2023-05-20T20:04:33.756Z,18.20
2023-05-20T20:07:00.961Z,18.14
2023-05-20T20:09:28.121Z,18.15
2023-05-20T20:11:55.223Z,18.07
2023-05-20T20:14:21.978Z,18.08
2023-05-20T20:16:49.558Z,18.01
2023-05-20T20:19:23.258Z,17.95
2023-05-20T20:21:53.238Z,17.93
2023-05-20T20:24:20.835Z,17.93
2023-05-20T20:26:47.720Z,17.91
2023-05-20T20:29:14.793Z,17.85
2023-05-20T20:31:41.955Z,17.74
2023-05-20T20:34:08.832Z,17.77
2023-05-20T20:36:35.650Z,17.68
2023-05-20T20:39:05.231Z,17.74
2023-05-20T20:41:33.763Z,17.63
2023-05-20T20:44:03.741Z,17.54
2023-05-20T20:46:31.061Z,17.63
2023-05-20T20:48:57.939Z,17.45
2023-05-20T20:51:27.192Z,17.52
2023-05-20T20:53:53.732Z,17.44
2023-05-20T20:56:20.473Z,17.50
2023-05-20T20:58:47.170Z,17.51
2023-05-20T21:01:17.869Z,17.46
2023-05-20T21:03:45.056Z,17.42
2023-05-20T21:06:15.003Z,17.42
2023-05-20T21:08:42.592Z,17.20
2023-05-20T21:11:09.313Z,17.18
2023-05-20T21:13:37.688Z,17.27
2023-05-20T21:16:06.652Z,17.30
2023-05-20T21:18:33.692Z,17.22
2023-05-20T21:21:00.949Z,17.19
2023-05-20T21:23:27.634Z,17.19
2023-05-20T21:25:54.470Z,17.19
2023-05-20T21:28:21.123Z,17.20
2023-05-20T21:30:47.724Z,17.16
2023-05-20T21:33:14.728Z,17.13
2023-05-20T21:35:41.430Z,17.12
2023-05-20T21:38:08.048Z,17.13
2023-05-20T21:40:34.552Z,17.03
2023-05-20T21:43:01.251Z,17.04
2023-05-20T21:45:27.931Z,17.06
2023-05-20T21:47:54.558Z,16.95
2023-05-20T21:50:21.466Z,17.04
2023-05-20T21:52:48.111Z,17.03
2023-05-20T21:55:14.898Z,17.04
2023-05-20T21:57:41.469Z,17.06
2023-05-20T22:00:10.492Z,17.04
2023-05-20T22:02:38.010Z,17.03
2023-05-20T22:05:05.211Z,16.99
2023-05-20T22:07:33.107Z,16.95
2023-05-20T22:10:00.824Z,16.93
2023-05-20T22:12:27.721Z,16.91
2023-05-20T22:14:54.631Z,16.86
2023-05-20T22:17:21.832Z,16.84
2023-05-20T22:19:50.165Z,16.85
2023-05-20T22:22:16.712Z,16.88
2023-05-20T22:24:43.498Z,16.84
2023-05-20T22:27:10.116Z,16.81
2023-05-20T22:29:36.957Z,16.81
2023-05-20T22:32:03.913Z,16.75
2023-05-20T22:34:30.677Z,16.73
2023-05-20T22:36:58.119Z,16.78
2023-05-20T22:39:24.720Z,16.79
2023-05-20T22:41:51.312Z,16.76
2023-05-20T22:44:17.936Z,16.74
2023-05-20T22:46:44.728Z,16.74
2023-05-20T22:49:12.916Z,16.68
2023-05-20T22:51:39.644Z,16.68
2023-05-20T22:54:07.041Z,16.67
2023-05-20T22:56:34.474Z,16.60
2023-05-20T22:59:01.369Z,16.67
2023-05-20T23:01:28.041Z,16.63
2023-05-20T23:03:55.337Z,16.60
2023-05-20T23:06:22.596Z,16.59
2023-05-20T23:08:49.337Z,16.60
2023-05-20T23:11:16.379Z,16.57
2023-05-20T23:13:43.118Z,16.52
2023-05-20T23:16:10.288Z,16.49
2023-05-20T23:18:37.056Z,16.46
2023-05-20T23:21:04.237Z,16.48
2023-05-20T23:23:32.028Z,16.54
2023-05-20T23:25:59.503Z,16.49
2023-05-20T23:28:26.239Z,16.40
2023-05-20T23:30:52.890Z,16.48
2023-05-20T23:33:24.404Z,16.46
2023-05-20T23:35:51.618Z,16.45
2023-05-20T23:38:18.368Z,16.40
2023-05-20T23:40:44.911Z,16.42
2023-05-20T23:43:11.574Z,16.41
2023-05-20T23:45:38.259Z,16.44
2023-05-20T23:48:06.250Z,16.41
2023-05-20T23:50:32.970Z,16.44
2023-05-20T23:52:59.872Z,16.44
2023-05-20T23:55:28.453Z,16.37
2023-05-20T23:57:55.496Z,16.39
